sensor_id;sensor_type;location;lat;lon;timestamp;temperature;humidity
16321;DHT22;8269;50.990;4.494;2023-03-13T00:02:14;10.50;99.90
16321;DHT22;8269;50.990;4.494;2023-03-13T00:04:39;10.50;99.90
16321;DHT22;8269;50.990;4.494;2023-03-13T00:07:05;10.40;99.90
16321;DHT22;8269;50.990;4.494;2023-03-13T00:09:31;10.40;99.90
16321;DHT22;8269;50.990;4.494;2023-03-13T00:11:57;10.50;99.90
16321;DHT22;8269;50.990;4.494;2023-03-13T00:14:22;10.50;99.90
16321;DHT22;8269;50.990;4.494;2023-03-13T00:16:48;10.40;99.90
16321;DHT22;8269;50.990;4.494;2023-03-13T00:19:14;10.60;99.90
16321;DHT22;8269;50.990;4.494;2023-03-13T00:21:40;10.60;99.90
16321;DHT22;8269;50.990;4.494;2023-03-13T02:29:36;11.80;99.90
16321;DHT22;8269;50.990;4.494;2023-03-13T02:32:01;11.90;99.90
16321;DHT22;8269;50.990;4.494;2023-03-13T02:34:32;11.80;99.90
16321;DHT22;8269;50.990;4.494;2023-03-13T02:37:03;11.80;99.90
16321;DHT22;8269;50.990;4.494;2023-03-13T02:39:31;11.90;99.90
16321;DHT22;8269;50.990;4.494;2023-03-13T02:42:00;11.90;99.90
16321;DHT22;8269;50.990;4.494;2023-03-13T02:44:28;12.00;99.90
16321;DHT22;8269;50.990;4.494;2023-03-13T02:46:54;12.00;99.90
16321;DHT22;8269;50.990;4.494;2023-03-13T02:49:23;12.00;99.90
16321;DHT22;8269;50.990;4.494;2023-03-13T02:51:52;11.70;99.90
16321;DHT22;8269;50.990;4.494;2023-03-13T02:54:22;12.10;99.90
16321;DHT22;8269;50.990;4.494;2023-03-13T03:01:43;12.30;99.90
16321;DHT22;8269;50.990;4.494;2023-03-13T03:23:40;12.60;99.90
16321;DHT22;8269;50.990;4.494;2023-03-13T03:26:06;12.60;99.90
16321;DHT22;8269;50.990;4.494;2023-03-13T03:28:32;12.60;99.90
16321;DHT22;8269;50.990;4.494;2023-03-13T03:31:03;12.60;99.90
16321;DHT22;8269;50.990;4.494;2023-03-13T03:33:29;12.70;99.90
16321;DHT22;8269;50.990;4.494;2023-03-13T03:36:02;12.60;99.90
16321;DHT22;8269;50.990;4.494;2023-03-13T03:38:29;12.60;99.90
16321;DHT22;8269;50.990;4.494;2023-03-13T04:17:29;12.80;99.90
16321;DHT22;8269;50.990;4.494;2023-03-13T04:19:55;12.80;99.90
16321;DHT22;8269;50.990;4.494;2023-03-13T04:22:21;12.80;99.90
16321;DHT22;8269;50.990;4.494;2023-03-13T04:24:46;12.90;99.90
16321;DHT22;8269;50.990;4.494;2023-03-13T04:27:12;12.90;99.90
16321;DHT22;8269;50.990;4.494;2023-03-13T04:29:39;12.90;99.90
16321;DHT22;8269;50.990;4.494;2023-03-13T04:32:04;12.90;99.90
16321;DHT22;8269;50.990;4.494;2023-03-13T04:34:30;12.90;99.90
16321;DHT22;8269;50.990;4.494;2023-03-13T04:36:56;12.90;99.90
16321;DHT22;8269;50.990;4.494;2023-03-13T04:39:22;12.90;99.90
16321;DHT22;8269;50.990;4.494;2023-03-13T04:41:54;12.90;99.90
16321;DHT22;8269;50.990;4.494;2023-03-13T04:44:21;12.90;99.90
16321;DHT22;8269;50.990;4.494;2023-03-13T04:46:48;12.90;99.90
16321;DHT22;8269;50.990;4.494;2023-03-13T04:49:15;12.90;99.90
16321;DHT22;8269;50.990;4.494;2023-03-13T04:51:41;13.00;99.90
16321;DHT22;8269;50.990;4.494;2023-03-13T04:54:07;13.00;99.90
16321;DHT22;8269;50.990;4.494;2023-03-13T04:56:33;12.90;99.90
16321;DHT22;8269;50.990;4.494;2023-03-13T04:58:59;12.90;99.90
16321;DHT22;8269;50.990;4.494;2023-03-13T05:03:50;12.90;99.90
16321;DHT22;8269;50.990;4.494;2023-03-13T05:06:17;13.00;99.90
16321;DHT22;8269;50.990;4.494;2023-03-13T05:08:43;13.10;99.90
16321;DHT22;8269;50.990;4.494;2023-03-13T05:11:09;13.00;99.90
16321;DHT22;8269;50.990;4.494;2023-03-13T05:13:35;13.20;99.90
16321;DHT22;8269;50.990;4.494;2023-03-13T05:16:02;13.10;99.90
16321;DHT22;8269;50.990;4.494;2023-03-13T05:18:28;13.00;99.90
16321;DHT22;8269;50.990;4.494;2023-03-13T05:20:53;12.90;99.90
16321;DHT22;8269;50.990;4.494;2023-03-13T05:23:24;12.90;99.90
16321;DHT22;8269;50.990;4.494;2023-03-13T05:25:50;12.90;99.90
16321;DHT22;8269;50.990;4.494;2023-03-13T05:28:15;13.10;99.90
16321;DHT22;8269;50.990;4.494;2023-03-13T05:35:33;13.10;99.90
16321;DHT22;8269;50.990;4.494;2023-03-13T05:37:59;13.10;99.90
16321;DHT22;8269;50.990;4.494;2023-03-13T05:40:24;13.00;99.90
16321;DHT22;8269;50.990;4.494;2023-03-13T08:26:40;14.10;99.90
16321;DHT22;8269;50.990;4.494;2023-03-13T08:29:12;14.10;99.90
16321;DHT22;8269;50.990;4.494;2023-03-13T08:31:44;14.10;99.90
16321;DHT22;8269;50.990;4.494;2023-03-13T08:34:11;14.20;99.90
16321;DHT22;8269;50.990;4.494;2023-03-13T08:36:38;14.20;99.90
16321;DHT22;8269;50.990;4.494;2023-03-13T08:41:37;14.30;99.90
16321;DHT22;8269;50.990;4.494;2023-03-13T08:46:33;14.20;99.90
16321;DHT22;8269;50.990;4.494;2023-03-13T08:51:26;14.50;99.90
16321;DHT22;8269;50.990;4.494;2023-03-13T08:53:54;14.60;99.90
16321;DHT22;8269;50.990;4.494;2023-03-13T09:08:36;14.70;99.90
16321;DHT22;8269;50.990;4.494;2023-03-13T09:13:46;14.70;99.90
16321;DHT22;8269;50.990;4.494;2023-03-13T09:16:17;14.80;99.90
16321;DHT22;8269;50.990;4.494;2023-03-13T09:40:51;15.90;99.90
16321;DHT22;8269;50.990;4.494;2023-03-13T09:48:57;16.10;99.90
16321;DHT22;8269;50.990;4.494;2023-03-13T10:01:48;15.80;99.90
16321;DHT22;8269;50.990;4.494;2023-03-13T12:19:38;16.80;99.90
16321;DHT22;8269;50.990;4.494;2023-03-13T12:22:23;16.90;99.90
16321;DHT22;8269;50.990;4.494;2023-03-13T12:35:26;17.30;99.90
16321;DHT22;8269;50.990;4.494;2023-03-13T12:43:23;17.20;99.90
16321;DHT22;8269;50.990;4.494;2023-03-13T12:52:11;17.20;99.90
16321;DHT22;8269;50.990;4.494;2023-03-13T14:25:56;17.20;95.30
